createdAt,value
2023-01-20T00:00:21.383Z,79.30
2023-01-20T00:01:21.290Z,80.30
2023-01-20T00:02:21.452Z,80.00
2023-01-20T00:03:21.278Z,71.00
2023-01-20T00:04:21.246Z,74.70
2023-01-20T00:05:21.231Z,77.70
2023-01-20T00:06:21.239Z,76.90
2023-01-20T00:07:21.233Z,74.00
2023-01-20T00:08:21.195Z,78.20
2023-01-20T00:09:21.188Z,76.80
2023-01-20T00:10:21.168Z,81.60
2023-01-20T00:11:21.157Z,79.40
2023-01-20T00:12:21.155Z,71.80
2023-01-20T00:13:21.124Z,80.80
2023-01-20T00:14:21.117Z,73.10
2023-01-20T00:15:21.110Z,84.60
2023-01-20T00:16:21.138Z,84.50
2023-01-20T00:17:21.090Z,89.20
2023-01-20T00:18:21.091Z,84.20
2023-01-20T00:19:21.068Z,90.40
2023-01-20T00:20:21.043Z,92.10
2023-01-20T00:21:21.039Z,91.90
2023-01-20T00:22:21.042Z,95.60
2023-01-20T00:23:21.009Z,84.80
2023-01-20T00:24:20.997Z,80.90
2023-01-20T00:25:20.977Z,85.60
2023-01-20T00:26:20.981Z,83.80
2023-01-20T00:27:20.972Z,79.10
2023-01-20T00:28:20.941Z,78.10
2023-01-20T00:29:20.928Z,80.70
2023-01-20T00:30:20.934Z,77.40
2023-01-20T00:31:20.960Z,74.80
2023-01-20T00:32:20.901Z,71.20
2023-01-20T00:33:20.885Z,73.30
2023-01-20T00:34:20.881Z,81.00
2023-01-20T00:35:20.852Z,80.80
2023-01-20T00:36:20.854Z,77.90
2023-01-20T00:37:20.853Z,76.00
2023-01-20T00:38:20.814Z,79.20
2023-01-20T00:39:20.807Z,84.40
2023-01-20T00:40:20.785Z,76.40
2023-01-20T00:41:20.778Z,86.60
2023-01-20T00:42:20.774Z,78.60
2023-01-20T00:43:20.752Z,79.20
2023-01-20T00:44:20.735Z,84.60
2023-01-20T00:45:20.730Z,76.40
2023-01-20T00:46:20.711Z,70.70
2023-01-20T00:47:20.727Z,70.40
2023-01-20T00:48:20.705Z,69.20
2023-01-20T00:49:20.675Z,70.20
2023-01-20T00:50:20.703Z,73.50
2023-01-20T00:51:20.652Z,73.50
2023-01-20T00:52:20.655Z,73.50
2023-01-20T00:53:20.624Z,72.70
2023-01-20T00:54:20.611Z,72.80
2023-01-20T00:55:20.598Z,61.80
2023-01-20T00:56:20.587Z,70.90
2023-01-20T00:57:20.574Z,66.10
2023-01-20T00:58:20.579Z,70.90
2023-01-20T00:59:20.556Z,75.70
2023-01-20T01:00:20.558Z,70.40
2023-01-20T01:01:20.622Z,65.80
2023-01-20T01:02:20.546Z,73.80
2023-01-20T01:03:20.513Z,68.00
2023-01-20T01:04:20.485Z,66.10
2023-01-20T01:05:20.479Z,72.70
2023-01-20T01:06:20.482Z,64.80
2023-01-20T01:07:20.451Z,68.00
2023-01-20T01:08:20.452Z,69.40
2023-01-20T01:09:20.423Z,65.20
2023-01-20T01:10:20.409Z,64.00
2023-01-20T01:11:20.398Z,67.30
2023-01-20T01:12:20.385Z,66.80
2023-01-20T01:13:20.384Z,74.30
2023-01-20T01:14:20.358Z,74.80
2023-01-20T01:15:20.347Z,70.90
2023-01-20T01:16:20.383Z,68.80
2023-01-20T01:17:20.320Z,68.50
2023-01-20T01:18:20.320Z,75.40
2023-01-20T01:19:20.295Z,75.10
2023-01-20T01:20:20.278Z,83.50
2023-01-20T01:21:20.268Z,77.00
2023-01-20T01:22:20.274Z,72.80
2023-01-20T01:23:20.267Z,77.40
2023-01-20T01:24:20.236Z,78.50
2023-01-20T01:25:20.226Z,77.10
2023-01-20T01:26:20.208Z,74.30
2023-01-20T01:27:20.192Z,76.60
2023-01-20T01:28:20.209Z,74.30
2023-01-20T01:29:20.168Z,76.70
2023-01-20T01:30:20.242Z,74.20
2023-01-20T01:31:20.230Z,83.70
2023-01-20T01:32:20.127Z,81.60
2023-01-20T01:33:20.135Z,79.30
2023-01-20T01:34:20.102Z,82.80
2023-01-20T01:35:20.099Z,75.50
2023-01-20T01:36:20.083Z,75.70
2023-01-20T01:37:20.073Z,77.50
2023-01-20T01:38:20.087Z,77.30
2023-01-20T01:39:20.043Z,76.90
2023-01-20T01:40:20.032Z,73.60
2023-01-20T01:41:20.017Z,87.80
2023-01-20T01:42:20.012Z,79.10
2023-01-20T01:43:20.015Z,73.80
2023-01-20T01:44:19.976Z,73.20
2023-01-20T01:45:19.967Z,76.30
2023-01-20T01:46:19.959Z,74.80
2023-01-20T01:47:19.942Z,75.30
2023-01-20T01:48:19.945Z,81.20
2023-01-20T01:49:19.922Z,80.00
2023-01-20T01:50:19.908Z,78.80
2023-01-20T01:51:19.931Z,71.50
2023-01-20T01:52:19.878Z,70.20
2023-01-20T01:53:19.888Z,71.70
2023-01-20T01:54:19.876Z,77.10
2023-01-20T01:55:19.855Z,80.90
2023-01-20T01:56:19.833Z,78.80
2023-01-20T01:57:19.824Z,76.90
2023-01-20T01:58:19.820Z,83.80
2023-01-20T01:59:19.793Z,78.20
2023-01-20T02:00:19.785Z,81.30
2023-01-20T02:01:19.901Z,86.30
2023-01-20T02:02:22.709Z,86.40
2023-01-20T02:03:19.755Z,84.00
2023-01-20T02:04:19.736Z,85.90
2023-01-20T02:05:19.717Z,90.70
2023-01-20T02:06:19.707Z,84.40
2023-01-20T02:07:19.695Z,81.30
2023-01-20T02:08:19.694Z,83.20
2023-01-20T02:09:19.673Z,83.10
2023-01-20T02:10:19.681Z,78.50
2023-01-20T02:11:19.648Z,81.00
2023-01-20T02:12:19.632Z,74.10
2023-01-20T02:13:19.635Z,79.30
2023-01-20T02:14:19.605Z,77.30
2023-01-20T02:15:19.593Z,75.40
2023-01-20T02:16:19.631Z,75.90
2023-01-20T02:17:19.581Z,75.80
2023-01-20T02:18:19.573Z,73.40
2023-01-20T02:19:19.544Z,71.90
2023-01-20T02:20:19.545Z,72.10
2023-01-20T02:21:19.518Z,69.10
2023-01-20T02:22:19.506Z,71.90
2023-01-20T02:23:19.511Z,68.20
2023-01-20T02:24:19.480Z,67.10
2023-01-20T02:25:19.475Z,69.40
2023-01-20T02:26:19.471Z,71.30
2023-01-20T02:27:19.450Z,69.70
2023-01-20T02:28:19.447Z,68.90
2023-01-20T02:29:19.422Z,70.00
2023-01-20T02:30:19.428Z,68.30
2023-01-20T02:31:19.453Z,68.00
2023-01-20T02:32:19.379Z,62.10
2023-01-20T02:33:19.385Z,70.20
2023-01-20T02:34:19.353Z,64.90
2023-01-20T02:35:19.346Z,66.70
2023-01-20T02:36:19.329Z,67.70
2023-01-20T02:37:19.318Z,63.10
2023-01-20T02:38:19.330Z,59.90
2023-01-20T02:39:27.273Z,58.40
2023-01-20T02:40:20.287Z,64.10
2023-01-20T02:41:19.276Z,62.90
2023-01-20T02:42:19.298Z,62.10
2023-01-20T02:43:19.260Z,61.60
2023-01-20T02:44:19.234Z,68.80
2023-01-20T02:45:19.220Z,65.90
2023-01-20T02:46:19.206Z,62.90
2023-01-20T02:47:19.197Z,69.10
2023-01-20T02:48:19.197Z,73.40
2023-01-20T02:49:19.167Z,66.40
2023-01-20T02:50:19.153Z,65.10
2023-01-20T02:51:19.143Z,67.60
2023-01-20T02:52:19.135Z,66.70
2023-01-20T02:53:19.130Z,64.60
2023-01-20T02:54:19.108Z,67.30
2023-01-20T02:55:19.093Z,67.90
2023-01-20T02:56:19.079Z,62.50
2023-01-20T02:57:19.074Z,66.20
2023-01-20T02:58:19.092Z,69.70
2023-01-20T02:59:19.053Z,65.40
2023-01-20T03:00:19.035Z,67.40
2023-01-20T03:01:19.079Z,60.70
2023-01-20T03:02:19.001Z,62.10
2023-01-20T03:03:19.004Z,61.80
2023-01-20T03:04:19.002Z,63.70
2023-01-20T03:05:18.965Z,64.40
2023-01-20T03:06:18.953Z,60.80
2023-01-20T03:07:18.943Z,61.70
2023-01-20T03:08:18.925Z,63.30
2023-01-20T03:09:18.931Z,62.50
2023-01-20T03:10:18.902Z,63.70
2023-01-20T03:11:18.894Z,62.60
2023-01-20T03:12:18.878Z,64.90
2023-01-20T03:13:18.868Z,66.50
2023-01-20T03:14:18.888Z,70.30
2023-01-20T03:15:18.845Z,72.30
2023-01-20T03:16:18.923Z,61.50
2023-01-20T03:17:18.813Z,64.90
2023-01-20T03:18:18.802Z,66.30
2023-01-20T03:19:20.390Z,64.70
2023-01-20T03:20:18.781Z,60.60
2023-01-20T03:21:18.769Z,57.30
2023-01-20T03:22:18.754Z,63.30
2023-01-20T03:23:18.739Z,62.50
2023-01-20T03:24:18.767Z,64.50
2023-01-20T03:25:18.725Z,57.60
2023-01-20T03:26:18.711Z,61.60
2023-01-20T03:27:18.688Z,57.60
2023-01-20T03:28:18.676Z,60.00
2023-01-20T03:29:18.685Z,57.70
2023-01-20T03:30:18.676Z,59.10
2023-01-20T03:31:18.768Z,60.80
2023-01-20T03:32:18.629Z,63.10
2023-01-20T03:33:18.615Z,59.60
2023-01-20T03:34:18.615Z,61.90
2023-01-20T03:35:18.590Z,63.10
2023-01-20T03:36:18.587Z,59.90
2023-01-20T03:37:18.568Z,60.60
2023-01-20T03:38:18.553Z,55.20
2023-01-20T03:39:18.550Z,61.50
2023-01-20T03:40:18.528Z,59.30
2023-01-20T03:41:18.514Z,60.30
2023-01-20T03:42:18.507Z,64.10
2023-01-20T03:43:18.494Z,58.50
2023-01-20T03:44:18.491Z,60.60
2023-01-20T03:45:18.471Z,63.80
2023-01-20T03:46:18.480Z,59.70
2023-01-20T03:47:18.446Z,59.50
2023-01-20T03:48:18.448Z,54.70
2023-01-20T03:49:18.457Z,56.00
2023-01-20T03:50:18.411Z,52.30
2023-01-20T03:51:18.395Z,56.50
2023-01-20T03:52:18.376Z,59.80
2023-01-20T03:53:18.371Z,58.70
2023-01-20T03:54:18.367Z,59.50
2023-01-20T03:55:18.362Z,55.20
2023-01-20T03:56:18.329Z,56.90
2023-01-20T03:57:18.329Z,57.20
2023-01-20T03:58:18.305Z,53.60
2023-01-20T03:59:18.315Z,52.90
2023-01-20T04:00:18.279Z,56.90
2023-01-20T04:01:19.201Z,52.70
2023-01-20T04:02:18.448Z,54.60
2023-01-20T04:03:18.260Z,56.10
2023-01-20T04:04:18.251Z,56.90
2023-01-20T04:05:18.218Z,53.60
2023-01-20T04:06:18.203Z,57.40
2023-01-20T04:07:18.206Z,56.50
2023-01-20T04:08:18.186Z,57.60
2023-01-20T04:09:18.192Z,55.50
2023-01-20T04:10:18.154Z,58.50
2023-01-20T04:11:18.139Z,62.40
2023-01-20T04:12:18.133Z,61.60
2023-01-20T04:13:18.119Z,61.80
2023-01-20T04:14:18.119Z,55.00
2023-01-20T04:15:18.182Z,53.70
2023-01-20T04:16:18.077Z,56.20
2023-01-20T04:17:18.067Z,52.30
2023-01-20T04:18:18.080Z,54.10
2023-01-20T04:19:18.065Z,52.50
2023-01-20T04:20:18.027Z,55.10
2023-01-20T04:21:18.016Z,54.50
2023-01-20T04:22:18.003Z,53.30
2023-01-20T04:23:17.987Z,50.30
2023-01-20T04:24:17.999Z,53.20
2023-01-20T04:25:17.959Z,55.00
2023-01-20T04:26:17.950Z,52.00
2023-01-20T04:27:17.937Z,53.70
2023-01-20T04:28:17.927Z,57.70
2023-01-20T04:29:17.913Z,57.60
2023-01-20T04:30:18.054Z,55.50
2023-01-20T04:31:29.480Z,63.10
2023-01-20T04:32:17.879Z,56.80
2023-01-20T04:33:17.868Z,57.90
2023-01-20T04:34:17.875Z,51.40
2023-01-20T04:35:17.859Z,57.40
2023-01-20T04:36:17.828Z,55.80
2023-01-20T04:37:17.809Z,51.30
2023-01-20T04:38:17.804Z,48.30
2023-01-20T04:39:17.793Z,52.80
2023-01-20T04:40:17.799Z,46.40
2023-01-20T04:41:17.772Z,47.30
2023-01-20T04:42:17.749Z,52.20
2023-01-20T04:43:17.741Z,51.40
2023-01-20T04:44:17.727Z,50.70
2023-01-20T04:45:17.912Z,47.00
2023-01-20T04:46:17.756Z,51.80
2023-01-20T04:47:17.694Z,56.60
2023-01-20T04:48:17.680Z,52.00
2023-01-20T04:49:17.675Z,50.30
2023-01-20T04:50:18.683Z,52.60
2023-01-20T04:51:17.639Z,57.00
2023-01-20T04:52:17.633Z,56.30
2023-01-20T04:53:17.616Z,60.30
2023-01-20T04:54:17.607Z,55.30
2023-01-20T04:55:17.810Z,61.60
2023-01-20T04:56:17.582Z,53.00
2023-01-20T04:57:17.566Z,53.60
2023-01-20T04:58:17.554Z,53.50
2023-01-20T04:59:17.541Z,57.10
2023-01-20T05:00:17.540Z,56.10
2023-01-20T05:01:17.606Z,57.40
2023-01-20T05:02:17.633Z,59.10
2023-01-20T05:03:17.486Z,60.10
2023-01-20T05:04:17.475Z,57.90
2023-01-20T05:05:17.874Z,58.90
2023-01-20T05:06:17.495Z,63.20
2023-01-20T05:07:17.439Z,62.10
2023-01-20T05:08:17.429Z,64.20
2023-01-20T05:09:17.412Z,64.00
2023-01-20T05:10:17.418Z,65.30
2023-01-20T05:11:17.389Z,63.90
2023-01-20T05:12:17.376Z,61.70
2023-01-20T05:13:17.362Z,64.10
2023-01-20T05:14:17.347Z,62.80
2023-01-20T05:15:17.574Z,64.60
2023-01-20T05:16:17.405Z,65.00
2023-01-20T05:17:17.308Z,68.20
2023-01-20T05:18:17.302Z,63.70
2023-01-20T05:19:17.288Z,64.90
2023-01-20T05:20:17.294Z,62.60
2023-01-20T05:21:17.261Z,58.60
2023-01-20T05:22:17.277Z,59.50
2023-01-20T05:23:17.235Z,63.30
2023-01-20T05:24:17.227Z,59.30
2023-01-20T05:25:17.338Z,59.20
2023-01-20T05:26:17.197Z,59.60
2023-01-20T05:27:17.215Z,63.40
2023-01-20T05:28:17.178Z,61.20
2023-01-20T05:29:17.171Z,65.50
2023-01-20T05:30:17.179Z,64.90
2023-01-20T05:31:17.272Z,62.00
2023-01-20T05:32:17.128Z,64.20
2023-01-20T05:33:17.129Z,64.40
2023-01-20T05:34:17.099Z,62.70
2023-01-20T05:35:17.437Z,64.20
2023-01-20T05:36:17.081Z,65.20
2023-01-20T05:37:17.067Z,65.10
2023-01-20T05:38:17.073Z,61.00
2023-01-20T05:39:17.053Z,65.20
2023-01-20T05:40:17.059Z,64.30
2023-01-20T05:41:17.011Z,66.20
2023-01-20T05:42:17.011Z,68.20
2023-01-20T05:43:16.989Z,69.20
2023-01-20T05:44:16.983Z,69.50
2023-01-20T05:45:17.484Z,72.00
2023-01-20T05:46:17.014Z,65.40
2023-01-20T05:47:16.936Z,65.60
2023-01-20T05:48:16.925Z,64.60
2023-01-20T05:49:16.917Z,57.40
2023-01-20T05:50:16.908Z,64.20
2023-01-20T05:51:16.903Z,67.90
2023-01-20T05:52:16.908Z,66.80
2023-01-20T05:53:16.864Z,64.60
2023-01-20T05:54:16.883Z,65.90
2023-01-20T05:55:17.065Z,64.00
2023-01-20T05:56:16.839Z,64.10
2023-01-20T05:57:16.811Z,65.70
2023-01-20T05:58:16.801Z,65.50
2023-01-20T05:59:16.868Z,62.20
2023-01-20T06:00:16.773Z,59.60
2023-01-20T06:01:16.799Z,62.70
2023-01-20T06:02:16.745Z,65.50
2023-01-20T06:03:16.741Z,61.20
2023-01-20T06:04:16.740Z,68.10
2023-01-20T06:05:17.118Z,60.00
2023-01-20T06:06:16.712Z,63.00
2023-01-20T06:07:16.700Z,62.40
2023-01-20T06:08:16.677Z,62.40
2023-01-20T06:09:16.664Z,62.10
2023-01-20T06:10:16.671Z,59.30
2023-01-20T06:11:16.648Z,62.60
2023-01-20T06:12:16.620Z,61.90
2023-01-20T06:13:16.613Z,65.50
2023-01-20T06:14:16.605Z,65.60
2023-01-20T06:15:16.925Z,62.90
2023-01-20T06:16:16.657Z,60.20
2023-01-20T06:17:16.573Z,60.40
2023-01-20T06:18:16.552Z,65.70
2023-01-20T06:19:16.540Z,64.70
2023-01-20T06:20:16.529Z,63.70
2023-01-20T06:21:16.525Z,66.60
2023-01-20T06:22:16.518Z,67.90
2023-01-20T06:23:16.495Z,63.70
2023-01-20T06:24:16.472Z,65.10
2023-01-20T06:25:16.860Z,63.20
2023-01-20T06:26:16.510Z,62.50
2023-01-20T06:27:16.445Z,63.40
2023-01-20T06:28:16.428Z,57.80
2023-01-20T06:29:16.411Z,68.30
2023-01-20T06:30:16.405Z,62.30
2023-01-20T06:31:16.512Z,62.20
2023-01-20T06:32:16.382Z,61.80
2023-01-20T06:33:16.363Z,60.60
2023-01-20T06:34:16.378Z,63.50
2023-01-20T06:35:16.808Z,63.10
2023-01-20T06:36:16.334Z,63.20
2023-01-20T06:37:16.308Z,67.00
2023-01-20T06:38:16.295Z,61.30
2023-01-20T06:39:16.285Z,60.20
2023-01-20T06:40:16.275Z,61.80
2023-01-20T06:41:16.286Z,65.50
2023-01-20T06:42:16.279Z,59.30
2023-01-20T06:43:16.242Z,56.30
2023-01-20T06:44:16.223Z,62.40
2023-01-20T06:45:16.586Z,62.30
2023-01-20T06:46:16.277Z,61.80
2023-01-20T06:47:16.187Z,63.60
2023-01-20T06:48:16.191Z,58.80
2023-01-20T06:49:16.158Z,63.80
2023-01-20T06:50:16.173Z,77.30
2023-01-20T06:51:16.157Z,83.90
2023-01-20T06:52:16.135Z,80.80
2023-01-20T06:53:16.128Z,65.30
2023-01-20T06:54:16.103Z,74.60
2023-01-20T06:55:16.573Z,60.40
2023-01-20T06:56:16.094Z,55.90
2023-01-20T06:57:16.059Z,72.70
2023-01-20T06:58:16.068Z,69.70
2023-01-20T06:59:16.035Z,60.00
2023-01-20T07:00:16.040Z,59.50
2023-01-20T07:01:16.163Z,61.50
2023-01-20T07:02:16.177Z,59.40
2023-01-20T07:03:15.986Z,57.90
2023-01-20T07:04:15.976Z,58.60
2023-01-20T07:05:16.256Z,63.70
2023-01-20T07:06:15.994Z,60.60
2023-01-20T07:07:15.938Z,60.20
2023-01-20T07:08:15.927Z,64.60
2023-01-20T07:09:15.914Z,63.80
2023-01-20T07:10:15.899Z,58.60
2023-01-20T07:11:15.897Z,59.60
2023-01-20T07:12:15.887Z,60.20
2023-01-20T07:13:15.857Z,59.20
2023-01-20T07:14:15.869Z,61.40
2023-01-20T07:15:16.186Z,58.70
2023-01-20T07:16:16.222Z,56.30
2023-01-20T07:17:15.807Z,59.50
2023-01-20T07:18:15.804Z,64.30
2023-01-20T07:19:15.781Z,57.50
2023-01-20T07:20:15.772Z,62.60
2023-01-20T07:21:15.775Z,57.30
2023-01-20T07:22:15.747Z,58.10
2023-01-20T07:23:15.729Z,61.10
2023-01-20T07:24:15.723Z,62.50
2023-01-20T07:25:15.986Z,60.20
2023-01-20T07:26:15.710Z,57.00
2023-01-20T07:27:15.678Z,52.60
2023-01-20T07:28:15.671Z,52.20
2023-01-20T07:29:17.858Z,54.60
2023-01-20T07:30:15.668Z,54.70
2023-01-20T07:31:15.684Z,54.40
2023-01-20T07:32:15.638Z,50.80
2023-01-20T07:33:15.611Z,53.90
2023-01-20T07:34:15.594Z,52.00
2023-01-20T07:35:15.868Z,52.30
2023-01-20T07:36:15.580Z,52.70
2023-01-20T07:37:15.568Z,55.90
2023-01-20T07:38:15.554Z,56.00
2023-01-20T07:39:15.545Z,54.90
2023-01-20T07:40:15.525Z,58.90
2023-01-20T07:41:15.506Z,58.70
2023-01-20T07:42:15.511Z,60.50
2023-01-20T07:43:15.490Z,61.50
2023-01-20T07:44:15.469Z,60.90
2023-01-20T07:45:15.742Z,63.20
2023-01-20T07:46:15.474Z,63.20
2023-01-20T07:47:15.454Z,62.60
2023-01-20T07:48:15.417Z,66.40
2023-01-20T07:49:15.412Z,71.60
2023-01-20T07:50:15.397Z,70.40
2023-01-20T07:51:15.384Z,71.60
2023-01-20T07:52:15.398Z,67.60
2023-01-20T07:53:15.358Z,73.50
2023-01-20T07:54:15.348Z,76.20
2023-01-20T07:55:15.726Z,77.20
2023-01-20T07:56:15.335Z,74.20
2023-01-20T07:57:15.329Z,75.50
2023-01-20T07:58:15.294Z,76.10
2023-01-20T07:59:15.281Z,77.00
2023-01-20T08:00:15.269Z,76.80
2023-01-20T08:01:15.414Z,69.70
2023-01-20T08:02:15.283Z,77.30
2023-01-20T08:03:15.236Z,69.20
2023-01-20T08:04:15.221Z,68.00
2023-01-20T08:05:15.563Z,70.50
2023-01-20T08:06:15.200Z,65.00
2023-01-20T08:07:15.195Z,68.40
2023-01-20T08:08:15.167Z,64.70
2023-01-20T08:09:15.154Z,60.20
2023-01-20T08:10:15.182Z,63.60
2023-01-20T08:11:15.130Z,64.50
2023-01-20T08:12:15.130Z,58.80
2023-01-20T08:13:15.107Z,64.30
2023-01-20T08:14:15.095Z,63.10
2023-01-20T08:15:15.363Z,59.10
2023-01-20T08:16:15.124Z,60.10
2023-01-20T08:17:15.109Z,65.40
2023-01-20T08:18:15.065Z,61.40
2023-01-20T08:19:15.028Z,61.50
2023-01-20T08:20:15.022Z,61.70
2023-01-20T08:21:15.002Z,64.10
2023-01-20T08:22:15.007Z,62.50
2023-01-20T08:23:14.989Z,64.10
2023-01-20T08:24:14.963Z,64.30
2023-01-20T08:25:15.179Z,63.20
2023-01-20T08:26:14.942Z,60.10
2023-01-20T08:27:14.938Z,61.90
2023-01-20T08:28:14.924Z,61.40
2023-01-20T08:29:14.904Z,64.10
2023-01-20T08:30:14.892Z,62.90
2023-01-20T08:31:15.105Z,62.30
2023-01-20T08:32:14.888Z,59.30
2023-01-20T08:33:14.860Z,61.10
2023-01-20T08:34:14.865Z,61.60
2023-01-20T08:35:15.062Z,58.50
2023-01-20T08:36:14.816Z,62.20
2023-01-20T08:37:14.824Z,58.10
2023-01-20T08:38:14.873Z,62.80
2023-01-20T08:39:14.816Z,59.80
2023-01-20T08:40:14.816Z,57.90
2023-01-20T08:41:14.755Z,61.60
2023-01-20T08:42:14.750Z,56.70
2023-01-20T08:43:14.731Z,60.80
2023-01-20T08:44:14.718Z,56.00
2023-01-20T08:45:15.091Z,61.20
2023-01-20T08:46:14.823Z,58.20
2023-01-20T08:47:14.698Z,54.10
2023-01-20T08:48:14.663Z,55.00
2023-01-20T08:49:14.647Z,55.20
2023-01-20T08:50:14.672Z,49.60
2023-01-20T08:51:14.679Z,49.10
2023-01-20T08:52:14.640Z,50.70
2023-01-20T08:53:14.600Z,51.50
2023-01-20T08:54:14.603Z,48.60
2023-01-20T08:55:14.861Z,51.00
2023-01-20T08:56:14.561Z,48.00
2023-01-20T08:57:14.546Z,52.50
2023-01-20T08:58:14.552Z,54.80
2023-01-20T08:59:14.532Z,52.10
2023-01-20T09:00:14.515Z,50.30
2023-01-20T09:01:14.544Z,50.60
2023-01-20T09:02:14.516Z,52.70
2023-01-20T09:03:14.485Z,54.10
2023-01-20T09:04:14.461Z,53.90
2023-01-20T09:05:14.798Z,60.90
2023-01-20T09:06:14.500Z,58.00
2023-01-20T09:07:14.437Z,56.60
2023-01-20T09:08:14.426Z,54.70
2023-01-20T09:09:14.406Z,61.90
2023-01-20T09:10:14.388Z,53.70
2023-01-20T09:11:14.414Z,56.00
2023-01-20T09:12:14.358Z,56.50
2023-01-20T09:13:14.370Z,59.80
2023-01-20T09:14:14.337Z,58.20
2023-01-20T09:15:14.587Z,62.60
2023-01-20T09:16:14.334Z,58.60
2023-01-20T09:17:14.294Z,57.50
2023-01-20T09:18:14.296Z,57.50
2023-01-20T09:19:14.275Z,61.70
2023-01-20T09:20:14.274Z,54.50
2023-01-20T09:21:14.274Z,52.30
2023-01-20T09:22:16.503Z,55.70
2023-01-20T09:23:14.244Z,58.10
2023-01-20T09:24:14.207Z,58.90
2023-01-20T09:25:14.618Z,60.90
2023-01-20T09:26:19.723Z,56.60
2023-01-20T09:27:14.171Z,68.10
2023-01-20T09:28:14.196Z,73.70
2023-01-20T09:29:14.156Z,83.20
2023-01-20T09:30:14.130Z,67.00
2023-01-20T09:31:14.288Z,85.50
2023-01-20T09:32:14.111Z,66.60
2023-01-20T09:33:14.122Z,64.20
2023-01-20T09:34:15.390Z,57.80
2023-01-20T09:35:14.558Z,58.70
2023-01-20T09:36:14.058Z,58.50
2023-01-20T09:37:14.043Z,56.30
2023-01-20T09:38:14.065Z,61.70
2023-01-20T09:39:14.017Z,57.00
2023-01-20T09:40:14.347Z,76.20
2023-01-20T09:41:13.994Z,61.40
2023-01-20T09:42:13.982Z,57.20
2023-01-20T09:43:13.979Z,58.00
2023-01-20T09:44:13.955Z,52.00
2023-01-20T09:45:14.419Z,52.30
2023-01-20T09:46:13.981Z,52.00
2023-01-20T09:47:13.928Z,51.50
2023-01-20T09:48:13.911Z,50.90
2023-01-20T09:49:13.897Z,56.00
2023-01-20T09:50:14.352Z,53.10
2023-01-20T09:51:13.867Z,58.20
2023-01-20T09:52:13.847Z,54.20
2023-01-20T09:53:13.852Z,53.10
2023-01-20T09:54:13.840Z,54.70
2023-01-20T09:55:13.821Z,57.90
2023-01-20T09:56:13.801Z,53.80
2023-01-20T09:57:13.784Z,47.20
2023-01-20T09:58:13.767Z,43.20
2023-01-20T09:59:13.773Z,45.60
2023-01-20T10:00:14.133Z,41.50
2023-01-20T10:01:13.781Z,45.70
2023-01-20T10:02:13.724Z,45.20
2023-01-20T10:03:13.712Z,43.10
2023-01-20T10:04:13.712Z,42.70
2023-01-20T10:05:13.769Z,44.10
2023-01-20T10:06:13.668Z,41.80
2023-01-20T10:07:13.660Z,44.40
2023-01-20T10:08:13.649Z,43.00
2023-01-20T10:09:13.652Z,43.00
2023-01-20T10:10:13.938Z,43.00
2023-01-20T10:11:13.672Z,47.40
2023-01-20T10:12:13.597Z,44.70
2023-01-20T10:13:13.587Z,44.40
2023-01-20T10:14:13.626Z,40.30
2023-01-20T10:15:13.561Z,40.60
2023-01-20T10:16:13.724Z,40.40
2023-01-20T10:17:13.541Z,40.20
2023-01-20T10:18:13.570Z,41.70
2023-01-20T10:19:13.522Z,41.80
2023-01-20T10:20:13.835Z,39.30
2023-01-20T10:21:13.483Z,39.30
2023-01-20T10:22:13.464Z,40.70
2023-01-20T10:23:13.456Z,40.10
2023-01-20T10:24:13.451Z,37.90
2023-01-20T10:25:13.439Z,39.60
2023-01-20T10:26:13.466Z,36.70
2023-01-20T10:27:13.405Z,37.30
2023-01-20T10:28:13.385Z,36.90
2023-01-20T10:29:13.393Z,39.50
2023-01-20T10:30:13.689Z,38.90
2023-01-20T10:31:13.493Z,39.70
2023-01-20T10:32:13.335Z,39.60
2023-01-20T10:33:13.327Z,46.80
2023-01-20T10:34:13.323Z,55.80
2023-01-20T10:35:13.705Z,45.20
2023-01-20T10:36:13.286Z,34.80
2023-01-20T10:37:13.274Z,32.70
2023-01-20T10:38:13.256Z,30.80
2023-01-20T10:39:13.269Z,28.90
2023-01-20T10:40:13.291Z,27.70
2023-01-20T10:41:15.593Z,27.40
2023-01-20T10:42:13.244Z,28.20
2023-01-20T10:43:13.215Z,27.30
2023-01-20T10:44:13.199Z,27.70
2023-01-20T10:45:13.789Z,29.60
2023-01-20T10:46:13.163Z,28.80
2023-01-20T10:47:13.735Z,25.80
2023-01-20T10:48:13.125Z,26.70
2023-01-20T10:49:13.143Z,24.70
2023-01-20T10:50:13.108Z,26.30
2023-01-20T10:51:13.091Z,28.00
2023-01-20T10:52:13.076Z,26.40
2023-01-20T10:53:13.674Z,26.10
2023-01-20T10:54:13.061Z,26.80
2023-01-20T10:55:13.396Z,27.10
2023-01-20T10:56:13.020Z,32.00
2023-01-20T10:57:13.014Z,28.30
2023-01-20T10:58:13.027Z,31.90
2023-01-20T10:59:13.011Z,29.80
2023-01-20T11:00:13.148Z,28.00
2023-01-20T11:01:12.962Z,27.50
2023-01-20T11:02:13.032Z,26.90
2023-01-20T11:03:12.976Z,29.80
2023-01-20T11:04:12.917Z,28.50
2023-01-20T11:05:12.921Z,28.80
2023-01-20T11:06:12.889Z,27.50
2023-01-20T11:07:12.882Z,28.40
2023-01-20T11:08:12.865Z,27.90
2023-01-20T11:09:12.852Z,29.50
2023-01-20T11:10:13.326Z,30.50
2023-01-20T11:11:12.828Z,30.00
2023-01-20T11:12:12.811Z,30.20
2023-01-20T11:13:12.799Z,30.50
2023-01-20T11:14:12.816Z,31.40
2023-01-20T11:15:12.792Z,31.70
2023-01-20T11:16:12.915Z,30.30
2023-01-20T11:17:12.751Z,29.30
2023-01-20T11:18:12.735Z,29.10
2023-01-20T11:19:12.721Z,27.40
2023-01-20T11:20:12.726Z,29.80
2023-01-20T11:21:12.695Z,29.60
2023-01-20T11:22:12.682Z,29.80
2023-01-20T11:23:12.676Z,29.70
2023-01-20T11:24:12.665Z,30.00
2023-01-20T11:25:12.671Z,28.90
2023-01-20T11:26:12.714Z,29.90
2023-01-20T11:27:12.619Z,30.10
2023-01-20T11:28:12.608Z,31.00
2023-01-20T11:29:12.602Z,32.00
2023-01-20T11:30:12.675Z,32.00
2023-01-20T11:31:12.689Z,34.60
2023-01-20T11:32:12.557Z,32.60
2023-01-20T11:33:12.568Z,36.20
2023-01-20T11:34:12.550Z,35.50
2023-01-20T11:35:12.776Z,33.40
2023-01-20T11:36:12.506Z,37.50
2023-01-20T11:37:12.498Z,39.50
2023-01-20T11:38:12.477Z,35.90
2023-01-20T11:39:12.469Z,36.50
2023-01-20T11:40:12.573Z,35.30
2023-01-20T11:41:12.440Z,33.30
2023-01-20T11:42:12.434Z,35.40
2023-01-20T11:43:12.411Z,32.00
2023-01-20T11:44:12.397Z,33.40
2023-01-20T11:45:21.177Z,33.80
2023-01-20T11:46:12.593Z,33.20
2023-01-20T11:47:12.363Z,33.90
2023-01-20T11:48:14.078Z,33.90
2023-01-20T11:49:12.347Z,33.80
2023-01-20T11:50:12.777Z,33.40
2023-01-20T11:51:12.314Z,32.40
2023-01-20T11:52:12.293Z,32.30
2023-01-20T11:53:12.280Z,32.80
2023-01-20T11:54:12.266Z,32.10
2023-01-20T11:55:12.271Z,31.00
2023-01-20T11:56:12.241Z,30.00
2023-01-20T11:57:12.232Z,29.60
2023-01-20T11:58:12.219Z,29.30
2023-01-20T11:59:12.200Z,29.20
2023-01-20T12:00:12.224Z,29.60
2023-01-20T12:01:12.179Z,29.50
2023-01-20T12:02:12.254Z,28.10
2023-01-20T12:03:12.154Z,27.30
2023-01-20T12:04:12.156Z,25.90
2023-01-20T12:05:12.144Z,25.90
2023-01-20T12:06:12.112Z,25.20
2023-01-20T12:07:12.102Z,28.50
2023-01-20T12:08:12.088Z,26.70
2023-01-20T12:09:12.079Z,25.40
2023-01-20T12:10:12.073Z,25.80
2023-01-20T12:11:12.043Z,25.60
2023-01-20T12:12:12.031Z,28.00
2023-01-20T12:13:12.019Z,25.40
2023-01-20T12:14:12.005Z,25.30
2023-01-20T12:15:11.994Z,25.10
2023-01-20T12:16:12.005Z,24.40
2023-01-20T12:17:11.966Z,27.00
2023-01-20T12:18:11.975Z,25.30
2023-01-20T12:19:11.948Z,25.30
2023-01-20T12:20:11.945Z,26.00
2023-01-20T12:21:11.950Z,24.70
2023-01-20T12:22:11.906Z,23.50
2023-01-20T12:23:11.886Z,24.40
2023-01-20T12:24:11.897Z,23.80
2023-01-20T12:25:11.867Z,23.80
2023-01-20T12:26:11.860Z,24.00
2023-01-20T12:27:11.833Z,23.20
2023-01-20T12:28:11.820Z,22.20
2023-01-20T12:29:11.809Z,23.10
2023-01-20T12:30:11.794Z,23.20
2023-01-20T12:31:11.828Z,24.00
2023-01-20T12:32:11.780Z,23.70
2023-01-20T12:33:11.758Z,23.40
2023-01-20T12:34:11.759Z,24.20
2023-01-20T12:35:11.730Z,23.10
2023-01-20T12:36:11.733Z,23.30
2023-01-20T12:37:11.708Z,23.40
2023-01-20T12:38:11.692Z,23.90
2023-01-20T12:39:11.682Z,24.60
2023-01-20T12:40:11.666Z,24.90
2023-01-20T12:41:11.668Z,24.20
2023-01-20T12:42:11.640Z,22.30
2023-01-20T12:43:11.626Z,23.90
2023-01-20T12:44:11.612Z,25.00
2023-01-20T12:45:11.604Z,22.40
2023-01-20T12:46:11.751Z,23.70
2023-01-20T12:47:11.577Z,23.20
2023-01-20T12:48:11.569Z,24.20
2023-01-20T12:49:11.563Z,23.20
2023-01-20T12:50:11.556Z,24.50
2023-01-20T12:51:11.545Z,24.30
2023-01-20T12:52:11.513Z,26.60